Acton, Maine
Current Conditions -  °F | °C
As of 1:35 AM on Monday 24 Nov 2014 (Local Time) from KSFM Reporting Station
Clear Clear  
Wind Chill: 30°   Ceiling: Unl
Heat Index: 30°   Visibility: 5mi
Dew Point: 25°   Wind: 0mph
Humidity: 80%   Direction: NA
Pressure: 30.07"   Gusts: NA
Location:  43.53°N, 70.91°W
Report Text: KSFM 240635Z AUTO 00000KT 5SM CLR M01/M04 A3007 RMK AO1
Loading
Personal Weather Stations






























Interactive Weather Map New forecast layout! Learn more

10-Day Weather Forecast

Advertisements
Track Severe Weather on mobile